createdAt,value
2019-06-26T00:01:55.123Z,8.77
2019-06-26T00:04:28.725Z,7.67
2019-06-26T00:07:02.297Z,7.73
2019-06-26T00:09:36.164Z,7.33
2019-06-26T00:12:11.159Z,7.87
2019-06-26T00:14:52.421Z,7.10
2019-06-26T00:17:26.485Z,8.07
2019-06-26T00:20:00.296Z,8.27
2019-06-26T00:22:33.816Z,6.73
2019-06-26T00:25:08.397Z,7.10
2019-06-26T00:27:41.681Z,7.17
2019-06-26T00:30:15.679Z,5.47
2019-06-26T00:32:51.674Z,6.50
2019-06-26T00:35:25.325Z,5.40
2019-06-26T00:38:00.655Z,5.37
2019-06-26T00:40:34.366Z,5.27
2019-06-26T00:43:07.703Z,5.40
2019-06-26T00:45:41.256Z,5.13
2019-06-26T00:49:07.572Z,5.10
2019-06-26T00:51:42.917Z,6.33
2019-06-26T00:54:16.280Z,6.60
2019-06-26T00:56:55.189Z,6.53
2019-06-26T00:59:29.394Z,6.03
2019-06-26T01:02:02.839Z,5.60
2019-06-26T01:04:39.226Z,5.90
2019-06-26T01:07:15.947Z,6.53
2019-06-26T01:09:49.240Z,6.60
2019-06-26T01:12:23.097Z,7.87
2019-06-26T01:14:56.315Z,6.83
2019-06-26T01:17:29.726Z,6.40
2019-06-26T01:20:03.527Z,6.23
2019-06-26T01:22:38.801Z,5.83
2019-06-26T01:25:13.653Z,5.93
2019-06-26T01:27:47.389Z,6.20
2019-06-26T01:30:22.650Z,5.90
2019-06-26T01:32:56.901Z,5.83
2019-06-26T01:35:30.321Z,5.63
2019-06-26T01:38:04.026Z,6.03
2019-06-26T01:40:37.826Z,6.77
2019-06-26T01:43:12.271Z,5.83
2019-06-26T01:45:45.595Z,5.77
2019-06-26T01:48:20.560Z,5.33
2019-06-26T01:50:53.372Z,5.43
2019-06-26T01:53:27.093Z,5.97
2019-06-26T01:56:00.417Z,4.33
2019-06-26T01:58:40.051Z,5.13
2019-06-26T02:01:13.502Z,5.53
2019-06-26T02:03:47.200Z,5.73
2019-06-26T02:06:38.401Z,6.37
2019-06-26T02:09:12.939Z,5.80
2019-06-26T02:11:46.155Z,5.83
2019-06-26T02:14:30.458Z,6.30
2019-06-26T02:16:54.337Z,6.90
2019-06-26T02:19:28.088Z,6.00
2019-06-26T02:22:01.664Z,5.70
2019-06-26T02:24:40.582Z,5.60
2019-06-26T02:27:14.067Z,5.50
2019-06-26T02:29:48.148Z,5.73
2019-06-26T02:32:24.633Z,6.10
2019-06-26T02:35:02.542Z,5.87
2019-06-26T02:37:44.908Z,6.30
2019-06-26T02:40:18.945Z,6.13
2019-06-26T02:42:53.280Z,6.90
2019-06-26T02:45:27.377Z,5.97
2019-06-26T02:48:03.865Z,5.77
2019-06-26T02:50:37.631Z,5.60
2019-06-26T02:53:10.956Z,5.67
2019-06-26T02:55:44.626Z,5.57
2019-06-26T02:58:17.993Z,5.77
2019-06-26T03:00:54.311Z,5.43
2019-06-26T03:03:27.930Z,5.43
2019-06-26T03:06:01.430Z,5.57
2019-06-26T03:08:34.661Z,6.63
2019-06-26T03:11:08.259Z,6.37
2019-06-26T03:13:42.012Z,7.13
2019-06-26T03:16:15.595Z,6.00
2019-06-26T03:18:49.574Z,6.70
2019-06-26T03:21:24.262Z,6.20
2019-06-26T03:23:57.682Z,7.57
2019-06-26T03:26:31.648Z,7.07
2019-06-26T03:29:11.008Z,6.47
2019-06-26T03:31:44.654Z,6.63
2019-06-26T03:34:18.486Z,6.97
2019-06-26T03:36:52.349Z,5.67
2019-06-26T03:39:32.645Z,5.17
2019-06-26T03:42:06.429Z,6.40
2019-06-26T03:44:44.310Z,6.27
2019-06-26T03:47:18.175Z,6.77
2019-06-26T03:49:51.221Z,6.97
2019-06-26T03:52:31.633Z,8.33
2019-06-26T03:55:05.294Z,10.70
2019-06-26T03:57:40.004Z,9.53
2019-06-26T04:00:13.549Z,7.43
2019-06-26T04:02:47.278Z,6.80
2019-06-26T04:05:20.548Z,9.53
2019-06-26T04:07:54.112Z,9.77
2019-06-26T04:10:27.754Z,8.57
2019-06-26T04:13:01.551Z,7.87
2019-06-26T04:15:51.646Z,9.70
2019-06-26T04:18:25.473Z,7.90
2019-06-26T04:20:58.612Z,7.67
2019-06-26T04:23:37.339Z,8.83
2019-06-26T04:26:13.119Z,7.77
2019-06-26T04:28:47.079Z,6.73
2019-06-26T04:31:20.473Z,6.73
2019-06-26T04:33:55.345Z,5.93
2019-06-26T04:36:28.628Z,7.27
2019-06-26T04:39:03.836Z,9.70
2019-06-26T04:41:39.425Z,9.53
2019-06-26T04:44:14.171Z,8.77
2019-06-26T04:46:50.283Z,7.80
2019-06-26T04:49:24.205Z,11.73
2019-06-26T04:51:57.581Z,9.47
2019-06-26T04:54:31.501Z,10.47
2019-06-26T04:57:05.241Z,11.93
2019-06-26T04:59:39.731Z,10.07
2019-06-26T05:02:12.919Z,10.60
2019-06-26T05:04:48.448Z,16.00
2019-06-26T05:07:22.037Z,11.13
2019-06-26T05:09:56.065Z,11.87
2019-06-26T05:12:30.016Z,12.63
2019-06-26T05:15:03.815Z,11.87
2019-06-26T05:17:45.145Z,9.57
2019-06-26T05:20:19.987Z,9.50
2019-06-26T05:22:53.921Z,20.37
2019-06-26T05:25:27.883Z,10.33
2019-06-26T05:28:01.945Z,8.73
2019-06-26T05:30:36.365Z,9.33
2019-06-26T05:33:10.957Z,9.97
2019-06-26T05:35:46.419Z,9.73
2019-06-26T05:38:20.729Z,13.13
2019-06-26T05:40:57.385Z,7.60
2019-06-26T05:43:34.070Z,10.17
2019-06-26T05:46:30.707Z,10.47
2019-06-26T05:48:55.906Z,15.37
2019-06-26T05:51:29.687Z,10.43
2019-06-26T05:54:03.965Z,7.07
2019-06-26T05:56:38.257Z,11.03
2019-06-26T05:59:12.708Z,7.70
2019-06-26T06:01:47.916Z,9.30
2019-06-26T06:04:22.125Z,12.03
2019-06-26T06:07:02.017Z,9.53
2019-06-26T06:09:39.883Z,11.87
2019-06-26T06:12:14.028Z,11.10
2019-06-26T06:14:48.409Z,9.87
2019-06-26T06:17:23.824Z,9.20
2019-06-26T06:20:02.109Z,7.50
2019-06-26T06:22:40.131Z,8.43
2019-06-26T06:25:13.959Z,7.07
2019-06-26T06:27:48.187Z,6.93
2019-06-26T06:30:22.773Z,7.60
2019-06-26T06:32:56.789Z,5.73
2019-06-26T06:35:30.879Z,5.10
2019-06-26T06:38:05.963Z,6.03
2019-06-26T06:40:39.946Z,5.90
2019-06-26T06:43:16.159Z,6.53
2019-06-26T06:45:53.417Z,6.60
2019-06-26T06:48:27.779Z,8.10
2019-06-26T06:51:01.639Z,5.93
2019-06-26T06:53:35.681Z,5.10
2019-06-26T06:56:11.636Z,5.83
2019-06-26T06:58:46.420Z,4.93
2019-06-26T07:01:19.955Z,7.23
2019-06-26T07:03:54.074Z,7.43
2019-06-26T07:06:28.345Z,8.13
2019-06-26T07:09:06.093Z,6.90
2019-06-26T07:11:46.066Z,6.00
2019-06-26T07:14:21.556Z,7.23
2019-06-26T07:16:55.389Z,5.77
2019-06-26T07:19:31.002Z,9.03
2019-06-26T07:22:08.678Z,5.30
2019-06-26T07:24:44.132Z,7.23
2019-06-26T07:27:18.421Z,6.23
2019-06-26T07:29:52.306Z,6.03
